SPTEC EPKK-EPKK
Flight info
| Callsign | SPTEC |
|---|---|
| Flight time | 0h 26m |
| Altitude | 2000 |
| Route | EPKK/25 VFR CIRCUITS |
| Aircraft | PA24/L-SBDGRY/S |
Departure
| Time | 2026-04-30 18:49 |
|---|---|
| Airport | Kraków John Paul II International Airport (EPKK) |
Arrival
| Time | 2026-04-30 19:16 |
|---|---|
| Airport | Kraków John Paul II International Airport (EPKK) |
| Time | Latitude | Longitude | Altitude | Speed | Heading |
|---|---|---|---|---|---|
| 2026-04-30 18:28 | 50.07688 | 19.80077 | 794 ft | 0 kts | 348° |
| 2026-04-30 18:46 | 50.07699 | 19.80073 | 794 ft | 2 kts | 348° |
| 2026-04-30 18:47 | 50.07738 | 19.80073 | 794 ft | 4 kts | 44° |
| 2026-04-30 18:47 | 50.07753 | 19.80165 | 794 ft | 11 kts | 74° |
| 2026-04-30 18:47 | 50.07768 | 19.80272 | 794 ft | 11 kts | 78° |
| 2026-04-30 18:47 | 50.07803 | 19.80346 | 794 ft | 11 kts | 9° |
| 2026-04-30 18:48 | 50.07865 | 19.80330 | 795 ft | 10 kts | 347° |
| 2026-04-30 18:48 | 50.07994 | 19.80282 | 794 ft | 18 kts | 329° |
| 2026-04-30 18:48 | 50.08011 | 19.80192 | 795 ft | 0 kts | 254° |
| 2026-04-30 18:48 | 50.07997 | 19.80105 | 795 ft | 41 kts | 259° |
| 2026-04-30 18:49 | 50.07889 | 19.79377 | 867 ft | 83 kts | 257° |
| 2026-04-30 18:49 | 50.07761 | 19.78491 | 1103 ft | 88 kts | 258° |
| 2026-04-30 18:49 | 50.07612 | 19.77511 | 1337 ft | 100 kts | 258° |
| 2026-04-30 18:49 | 50.07447 | 19.76450 | 1524 ft | 102 kts | 260° |
| 2026-04-30 18:50 | 50.06985 | 19.75681 | 1658 ft | 111 kts | 188° |
| 2026-04-30 18:50 | 50.06250 | 19.75922 | 1844 ft | 111 kts | 134° |
| 2026-04-30 18:50 | 50.06127 | 19.77055 | 1931 ft | 109 kts | 81° |
| 2026-04-30 18:50 | 50.06207 | 19.78166 | 2042 ft | 99 kts | 78° |
| 2026-04-30 18:51 | 50.06324 | 19.79196 | 2029 ft | 95 kts | 75° |
| 2026-04-30 18:51 | 50.06483 | 19.80197 | 1957 ft | 99 kts | 70° |
| 2026-04-30 18:51 | 50.06668 | 19.81231 | 1874 ft | 100 kts | 70° |
| 2026-04-30 18:51 | 50.06877 | 19.82242 | 1842 ft | 92 kts | 62° |
| 2026-04-30 18:52 | 50.07334 | 19.82778 | 1702 ft | 84 kts | 0° |
| 2026-04-30 18:52 | 50.07858 | 19.82436 | 1515 ft | 82 kts | 328° |
| 2026-04-30 18:52 | 50.08192 | 19.81764 | 1317 ft | 84 kts | 280° |
| 2026-04-30 18:52 | 50.08101 | 19.80852 | 1096 ft | 83 kts | 262° |
| 2026-04-30 18:53 | 50.07985 | 19.80015 | 878 ft | 74 kts | 261° |
| 2026-04-30 18:53 | 50.07890 | 19.79315 | 795 ft | 55 kts | 263° |
| 2026-04-30 18:53 | 50.07805 | 19.78733 | 828 ft | 71 kts | 256° |
| 2026-04-30 18:53 | 50.07688 | 19.77891 | 1012 ft | 84 kts | 262° |
| 2026-04-30 18:54 | 50.07558 | 19.76939 | 1262 ft | 95 kts | 257° |
| 2026-04-30 18:54 | 50.07218 | 19.76243 | 1466 ft | 87 kts | 184° |
| 2026-04-30 18:54 | 50.06562 | 19.76325 | 1542 ft | 97 kts | 168° |
| 2026-04-30 18:54 | 50.06006 | 19.76898 | 1650 ft | 100 kts | 131° |
| 2026-04-30 18:55 | 50.05584 | 19.77794 | 1712 ft | 104 kts | 115° |
| 2026-04-30 18:55 | 50.05414 | 19.79854 | 1784 ft | 94 kts | 49° |
| 2026-04-30 18:55 | 50.05842 | 19.79719 | 1875 ft | 82 kts | 276° |
| 2026-04-30 18:56 | 50.04788 | 19.79507 | 1702 ft | 93 kts | 110° |
| 2026-04-30 18:56 | 50.05055 | 19.80119 | 1714 ft | 81 kts | 342° |
| 2026-04-30 18:56 | 50.05211 | 19.79302 | 1629 ft | 90 kts | 237° |
| 2026-04-30 18:57 | 50.04670 | 19.80022 | 1490 ft | 93 kts | 17° |
| 2026-04-30 18:57 | 50.05143 | 19.79573 | 1486 ft | 90 kts | 292° |
| 2026-04-30 18:57 | 50.05228 | 19.78640 | 1473 ft | 88 kts | 236° |
| 2026-04-30 18:58 | 50.04605 | 19.79776 | 1536 ft | 84 kts | 69° |
| 2026-04-30 18:58 | 50.05084 | 19.79885 | 1571 ft | 90 kts | 313° |
| 2026-04-30 18:58 | 50.05276 | 19.78889 | 1629 ft | 94 kts | 273° |
| 2026-04-30 18:59 | 50.04627 | 19.79408 | 1657 ft | 99 kts | 88° |
| 2026-04-30 19:00 | 50.05285 | 19.78457 | 1849 ft | 96 kts | 231° |
| 2026-04-30 19:00 | 50.04786 | 19.78696 | 1838 ft | 95 kts | 94° |
| 2026-04-30 19:00 | 50.04914 | 19.80706 | 1768 ft | 93 kts | 19° |
| 2026-04-30 19:01 | 50.05440 | 19.79115 | 1638 ft | 95 kts | 288° |
| 2026-04-30 19:01 | 50.05206 | 19.78293 | 1588 ft | 93 kts | 197° |
| 2026-04-30 19:02 | 50.04714 | 19.79739 | 1545 ft | 86 kts | 62° |
| 2026-04-30 19:02 | 50.05394 | 19.79019 | 1556 ft | 89 kts | 288° |
| 2026-04-30 19:03 | 50.04912 | 19.78703 | 1495 ft | 90 kts | 89° |
| 2026-04-30 19:03 | 50.05071 | 19.80070 | 1662 ft | 72 kts | 331° |
| 2026-04-30 19:04 | 50.05588 | 19.78422 | 1758 ft | 87 kts | 268° |
| 2026-04-30 19:04 | 50.05035 | 19.79225 | 1659 ft | 95 kts | 83° |
| 2026-04-30 19:05 | 50.05265 | 19.81106 | 1875 ft | 89 kts | 69° |
| 2026-04-30 19:05 | 50.05910 | 19.82409 | 2027 ft | 87 kts | 355° |
| 2026-04-30 19:06 | 50.07213 | 19.82137 | 1833 ft | 95 kts | 352° |
| 2026-04-30 19:06 | 50.07826 | 19.81921 | 1757 ft | 82 kts | 335° |
| 2026-04-30 19:06 | 50.08032 | 19.80352 | 1202 ft | 82 kts | 260° |
| 2026-04-30 19:07 | 50.07805 | 19.78763 | 911 ft | 70 kts | 260° |
| 2026-04-30 19:07 | 50.07686 | 19.77906 | 1007 ft | 88 kts | 261° |
| 2026-04-30 19:08 | 50.07320 | 19.76004 | 1528 ft | 88 kts | 216° |
| 2026-04-30 19:08 | 50.06235 | 19.76587 | 1575 ft | 96 kts | 99° |
| 2026-04-30 19:08 | 50.06229 | 19.77615 | 1595 ft | 94 kts | 82° |
| 2026-04-30 19:09 | 50.06428 | 19.79604 | 1651 ft | 92 kts | 77° |
| 2026-04-30 19:09 | 50.06535 | 19.80577 | 1654 ft | 93 kts | 76° |
| 2026-04-30 19:09 | 50.06662 | 19.81571 | 1657 ft | 94 kts | 74° |
| 2026-04-30 19:10 | 50.07518 | 19.82485 | 1613 ft | 90 kts | 338° |
| 2026-04-30 19:10 | 50.08143 | 19.81180 | 1369 ft | 80 kts | 267° |
| 2026-04-30 19:11 | 50.08028 | 19.80303 | 1013 ft | 85 kts | 259° |
| 2026-04-30 19:11 | 50.07827 | 19.78852 | 797 ft | 56 kts | 252° |
| 2026-04-30 19:11 | 50.07715 | 19.78115 | 967 ft | 76 kts | 261° |
| 2026-04-30 19:12 | 50.07601 | 19.77274 | 1215 ft | 80 kts | 258° |
| 2026-04-30 19:12 | 50.07463 | 19.76445 | 1515 ft | 77 kts | 250° |
| 2026-04-30 19:12 | 50.07039 | 19.75879 | 1750 ft | 97 kts | 179° |
| 2026-04-30 19:13 | 50.06312 | 19.77357 | 2069 ft | 101 kts | 83° |
| 2026-04-30 19:13 | 50.06474 | 19.79494 | 2029 ft | 99 kts | 76° |
| 2026-04-30 19:13 | 50.06590 | 19.80548 | 2033 ft | 97 kts | 76° |
| 2026-04-30 19:14 | 50.06698 | 19.81568 | 2057 ft | 95 kts | 76° |
| 2026-04-30 19:14 | 50.06799 | 19.82577 | 2084 ft | 93 kts | 78° |
| 2026-04-30 19:14 | 50.07119 | 19.83380 | 2069 ft | 92 kts | 20° |
| 2026-04-30 19:14 | 50.07746 | 19.83379 | 2013 ft | 85 kts | 347° |
| 2026-04-30 19:15 | 50.08256 | 19.83037 | 1821 ft | 82 kts | 312° |
| 2026-04-30 19:15 | 50.08173 | 19.81282 | 1227 ft | 85 kts | 260° |
| 2026-04-30 19:15 | 50.08037 | 19.80379 | 878 ft | 85 kts | 259° |
| 2026-04-30 19:16 | 50.07929 | 19.79604 | 802 ft | 62 kts | 262° |
| 2026-04-30 19:16 | 50.07873 | 19.79167 | 795 ft | 1 kts | 259° |
| 2026-04-30 19:16 | 50.07719 | 19.78151 | 960 ft | 81 kts | 258° |
| 2026-04-30 19:17 | 50.07594 | 19.77270 | 1274 ft | 89 kts | 259° |
| 2026-04-30 19:17 | 50.06705 | 19.77345 | 1424 ft | 86 kts | 108° |
| 2026-04-30 19:17 | 50.06699 | 19.78286 | 1423 ft | 91 kts | 80° |
| 2026-04-30 19:18 | 50.06833 | 19.79613 | 1436 ft | 94 kts | 77° |
| 2026-04-30 19:18 | 50.07046 | 19.81267 | 1498 ft | 93 kts | 69° |
| 2026-04-30 19:18 | 50.07562 | 19.81571 | 1431 ft | 97 kts | 336° |
| 2026-04-30 19:19 | 50.08077 | 19.81104 | 1372 ft | 75 kts | 301° |
| 2026-04-30 19:19 | 50.08028 | 19.80337 | 1117 ft | 74 kts | 259° |
| 2026-04-30 19:19 | 50.07813 | 19.78817 | 1009 ft | 72 kts | 261° |
| 2026-04-30 19:20 | 50.07708 | 19.78058 | 1098 ft | 70 kts | 257° |
| 2026-04-30 19:20 | 50.07376 | 19.77518 | 1316 ft | 89 kts | 182° |
| 2026-04-30 19:20 | 50.06369 | 19.78416 | 1559 ft | 96 kts | 86° |
| 2026-04-30 19:21 | 50.06414 | 19.79094 | 1575 ft | 94 kts | 82° |
| 2026-04-30 19:21 | 50.06587 | 19.81101 | 1638 ft | 94 kts | 79° |
| 2026-04-30 19:22 | 50.06786 | 19.83102 | 1668 ft | 93 kts | 76° |
| 2026-04-30 19:22 | 50.08288 | 19.82949 | 1710 ft | 81 kts | 286° |
| 2026-04-30 19:23 | 50.08055 | 19.80530 | 966 ft | 68 kts | 261° |
| 2026-04-30 19:24 | 50.07886 | 19.79283 | 797 ft | 48 kts | 254° |
| 2026-04-30 19:24 | 50.07780 | 19.78607 | 913 ft | 81 kts | 258° |
| 2026-04-30 19:24 | 50.07062 | 19.77445 | 1493 ft | 106 kts | 178° |
| 2026-04-30 19:25 | 50.05850 | 19.79216 | 1832 ft | 97 kts | 79° |
| 2026-04-30 19:26 | 50.06012 | 19.81281 | 1966 ft | 95 kts | 78° |
| 2026-04-30 19:26 | 50.06313 | 19.83363 | 1908 ft | 103 kts | 70° |
| 2026-04-30 19:26 | 50.06561 | 19.84377 | 1820 ft | 98 kts | 49° |
| 2026-04-30 19:27 | 50.07764 | 19.84583 | 1752 ft | 89 kts | 344° |
| 2026-04-30 19:27 | 50.08438 | 19.83335 | 1510 ft | 81 kts | 271° |
| 2026-04-30 19:28 | 50.08342 | 19.82486 | 1359 ft | 78 kts | 258° |
| 2026-04-30 19:28 | 50.08101 | 19.80845 | 1049 ft | 76 kts | 262° |
| 2026-04-30 19:29 | 50.07895 | 19.79376 | 804 ft | 61 kts | 261° |
| 2026-04-30 19:29 | 50.07821 | 19.78816 | 797 ft | 35 kts | 257° |
| 2026-04-30 19:30 | 50.07549 | 19.76894 | 1266 ft | 82 kts | 259° |
| 2026-04-30 19:30 | 50.06718 | 19.75912 | 1746 ft | 103 kts | 166° |
| 2026-04-30 19:31 | 50.05954 | 19.77402 | 2079 ft | 96 kts | 79° |
| 2026-04-30 19:31 | 50.06053 | 19.78406 | 2088 ft | 94 kts | 73° |
| 2026-04-30 19:31 | 50.06337 | 19.80358 | 2037 ft | 92 kts | 72° |
| 2026-04-30 19:32 | 50.06469 | 19.81327 | 2019 ft | 91 kts | 75° |
| 2026-04-30 19:32 | 50.06590 | 19.82295 | 2035 ft | 91 kts | 75° |
| 2026-04-30 19:32 | 50.06716 | 19.83268 | 2072 ft | 91 kts | 75° |
| 2026-04-30 19:32 | 50.06813 | 19.84240 | 2104 ft | 91 kts | 77° |
| 2026-04-30 19:33 | 50.06924 | 19.85212 | 2138 ft | 89 kts | 60° |
| 2026-04-30 19:33 | 50.07447 | 19.85537 | 2166 ft | 90 kts | 352° |
| 2026-04-30 19:33 | 50.08041 | 19.85293 | 2209 ft | 87 kts | 341° |
| 2026-04-30 19:33 | 50.08528 | 19.84719 | 2189 ft | 93 kts | 311° |
| 2026-04-30 19:34 | 50.08744 | 19.83759 | 2196 ft | 96 kts | 284° |
| 2026-04-30 19:34 | 50.08849 | 19.82725 | 2143 ft | 94 kts | 283° |
| 2026-04-30 19:34 | 50.09180 | 19.80730 | 2021 ft | 95 kts | 307° |
| 2026-04-30 19:35 | 50.09597 | 19.79924 | 2000 ft | 97 kts | 317° |
| 2026-04-30 19:35 | 50.10129 | 19.79285 | 1998 ft | 98 kts | 345° |
| 2026-04-30 19:35 | 50.10755 | 19.78957 | 2018 ft | 90 kts | 332° |
| 2026-04-30 19:35 | 50.10978 | 19.78120 | 2042 ft | 94 kts | 269° |
| 2026-04-30 19:36 | 50.10827 | 19.77103 | 2064 ft | 97 kts | 257° |
| 2026-04-30 19:36 | 50.10606 | 19.76102 | 2085 ft | 99 kts | 254° |
| 2026-04-30 19:36 | 50.09337 | 19.75562 | 1936 ft | 110 kts | 170° |
| 2026-04-30 19:37 | 50.08575 | 19.75749 | 1911 ft | 111 kts | 168° |
| 2026-04-30 19:37 | 50.07820 | 19.75953 | 1908 ft | 110 kts | 166° |
| 2026-04-30 19:37 | 50.07071 | 19.76218 | 1897 ft | 111 kts | 165° |
| 2026-04-30 19:37 | 50.06331 | 19.76482 | 1932 ft | 106 kts | 164° |
| 2026-04-30 19:38 | 50.05857 | 19.77265 | 1913 ft | 106 kts | 94° |
| 2026-04-30 19:38 | 50.05957 | 19.78351 | 1910 ft | 101 kts | 76° |
| 2026-04-30 19:38 | 50.06098 | 19.79448 | 1893 ft | 102 kts | 75° |
| 2026-04-30 19:38 | 50.06247 | 19.80500 | 1912 ft | 100 kts | 74° |
| 2026-04-30 19:39 | 50.06414 | 19.81642 | 1748 ft | 113 kts | 74° |
| 2026-04-30 19:39 | 50.06647 | 19.82787 | 1710 ft | 107 kts | 50° |
| 2026-04-30 19:39 | 50.07282 | 19.82984 | 1602 ft | 94 kts | 337° |
| 2026-04-30 19:39 | 50.07845 | 19.82633 | 1452 ft | 82 kts | 341° |
| 2026-04-30 19:40 | 50.08259 | 19.82175 | 1355 ft | 70 kts | 290° |
| 2026-04-30 19:40 | 50.08181 | 19.81410 | 1169 ft | 77 kts | 258° |
| 2026-04-30 19:40 | 50.08071 | 19.80607 | 1016 ft | 74 kts | 261° |
| 2026-04-30 19:40 | 50.07967 | 19.79866 | 859 ft | 67 kts | 259° |
| 2026-04-30 19:41 | 50.07881 | 19.79217 | 795 ft | 51 kts | 259° |
| 2026-04-30 19:41 | 50.07784 | 19.78626 | 811 ft | 80 kts | 257° |
| 2026-04-30 19:41 | 50.07661 | 19.77758 | 1056 ft | 85 kts | 257° |
| 2026-04-30 19:41 | 50.07510 | 19.76868 | 1259 ft | 80 kts | 256° |
| 2026-04-30 19:42 | 50.07118 | 19.76318 | 1384 ft | 90 kts | 175° |
| 2026-04-30 19:42 | 50.06511 | 19.76608 | 1474 ft | 92 kts | 136° |
| 2026-04-30 19:42 | 50.06396 | 19.77569 | 1503 ft | 96 kts | 80° |
| 2026-04-30 19:42 | 50.06495 | 19.78575 | 1520 ft | 95 kts | 77° |
| 2026-04-30 19:43 | 50.06625 | 19.79601 | 1527 ft | 97 kts | 75° |
| 2026-04-30 19:43 | 50.06776 | 19.80630 | 1535 ft | 98 kts | 73° |
| 2026-04-30 19:43 | 50.07011 | 19.81613 | 1529 ft | 97 kts | 40° |
| 2026-04-30 19:44 | 50.08113 | 19.80969 | 1271 ft | 85 kts | 278° |
| 2026-04-30 19:44 | 50.07985 | 19.80000 | 989 ft | 93 kts | 261° |
| 2026-04-30 19:44 | 50.07855 | 19.79042 | 957 ft | 89 kts | 258° |
| 2026-04-30 19:44 | 50.07725 | 19.78098 | 970 ft | 95 kts | 259° |
| 2026-04-30 19:45 | 50.07578 | 19.77122 | 1186 ft | 91 kts | 257° |
| 2026-04-30 19:45 | 50.07510 | 19.76146 | 1409 ft | 94 kts | 299° |
| 2026-04-30 19:45 | 50.08106 | 19.75756 | 1534 ft | 98 kts | 350° |
| 2026-04-30 19:45 | 50.08739 | 19.75868 | 1628 ft | 96 kts | 49° |
| 2026-04-30 19:46 | 50.08925 | 19.76903 | 1643 ft | 103 kts | 78° |
| 2026-04-30 19:46 | 50.09034 | 19.78011 | 1673 ft | 105 kts | 80° |
| 2026-04-30 19:46 | 50.09129 | 19.79129 | 1723 ft | 104 kts | 79° |
| 2026-04-30 19:46 | 50.09210 | 19.80229 | 1784 ft | 102 kts | 79° |
| 2026-04-30 19:47 | 50.09305 | 19.81338 | 1771 ft | 104 kts | 79° |
| 2026-04-30 19:47 | 50.09368 | 19.82079 | 1744 ft | 103 kts | 88° |
| 2026-04-30 19:47 | 50.08681 | 19.82821 | 1629 ft | 106 kts | 177° |
| 2026-04-30 19:47 | 50.08193 | 19.82132 | 1447 ft | 110 kts | 268° |
| 2026-04-30 19:48 | 50.08127 | 19.81086 | 1242 ft | 87 kts | 261° |
| 2026-04-30 19:48 | 50.08015 | 19.80209 | 966 ft | 79 kts | 261° |
| 2026-04-30 19:48 | 50.07906 | 19.79428 | 801 ft | 63 kts | 261° |
| 2026-04-30 19:48 | 50.07828 | 19.78879 | 797 ft | 59 kts | 257° |
| 2026-04-30 19:49 | 50.07711 | 19.78063 | 945 ft | 87 kts | 261° |
| 2026-04-30 19:49 | 50.07923 | 19.76406 | 1559 ft | 102 kts | 351° |
| 2026-04-30 19:49 | 50.08589 | 19.76555 | 1730 ft | 97 kts | 50° |
| 2026-04-30 19:50 | 50.08740 | 19.77627 | 1691 ft | 104 kts | 82° |
| 2026-04-30 19:50 | 50.08844 | 19.78709 | 1722 ft | 101 kts | 68° |
| 2026-04-30 19:50 | 50.09378 | 19.79262 | 1781 ft | 96 kts | 2° |
| 2026-04-30 19:50 | 50.10047 | 19.79201 | 1761 ft | 97 kts | 358° |
| 2026-04-30 19:51 | 50.10711 | 19.79149 | 1780 ft | 93 kts | 0° |
| 2026-04-30 19:51 | 50.11109 | 19.78591 | 1824 ft | 83 kts | 254° |
| 2026-04-30 19:51 | 50.10788 | 19.78776 | 1810 ft | 85 kts | 59° |
| 2026-04-30 19:51 | 50.10913 | 19.79476 | 1695 ft | 92 kts | 169° |
| 2026-04-30 19:52 | 50.10705 | 19.78682 | 1618 ft | 96 kts | 281° |
| 2026-04-30 19:52 | 50.11055 | 19.78064 | 1702 ft | 87 kts | 36° |
| 2026-04-30 19:52 | 50.11046 | 19.79024 | 1651 ft | 98 kts | 107° |
| 2026-04-30 19:52 | 50.10705 | 19.78775 | 1679 ft | 90 kts | 281° |
| 2026-04-30 19:53 | 50.10961 | 19.77998 | 1831 ft | 81 kts | 0° |
| 2026-04-30 19:53 | 50.11106 | 19.78758 | 1788 ft | 97 kts | 104° |
| 2026-04-30 19:53 | 50.10674 | 19.79234 | 1798 ft | 93 kts | 227° |
| 2026-04-30 19:53 | 50.10755 | 19.78259 | 1698 ft | 97 kts | 311° |
| 2026-04-30 19:54 | 50.11079 | 19.78789 | 1706 ft | 97 kts | 81° |
| 2026-04-30 19:54 | 50.11193 | 19.79891 | 1758 ft | 107 kts | 78° |
| 2026-04-30 19:54 | 50.11305 | 19.81038 | 1836 ft | 107 kts | 79° |
| 2026-04-30 19:54 | 50.11005 | 19.82028 | 1817 ft | 112 kts | 147° |
| 2026-04-30 19:55 | 50.10264 | 19.82436 | 1800 ft | 113 kts | 167° |
| 2026-04-30 19:55 | 50.09504 | 19.82655 | 1785 ft | 106 kts | 170° |
| 2026-04-30 19:55 | 50.08838 | 19.82819 | 1670 ft | 88 kts | 173° |
| 2026-04-30 19:55 | 50.08387 | 19.82497 | 1431 ft | 80 kts | 250° |
| 2026-04-30 19:56 | 50.08209 | 19.81622 | 1229 ft | 84 kts | 258° |
| 2026-04-30 19:56 | 50.08093 | 19.80744 | 1043 ft | 80 kts | 261° |
| 2026-04-30 19:56 | 50.07969 | 19.79894 | 830 ft | 76 kts | 259° |
| 2026-04-30 19:56 | 50.07880 | 19.79211 | 795 ft | 47 kts | 258° |
| 2026-04-30 19:57 | 50.07855 | 19.79033 | 795 ft | 19 kts | 258° |
| 2026-04-30 19:57 | 50.07752 | 19.78415 | 854 ft | 80 kts | 257° |
| 2026-04-30 19:57 | 50.07634 | 19.77531 | 1178 ft | 84 kts | 261° |
| 2026-04-30 19:57 | 50.07550 | 19.76632 | 1559 ft | 88 kts | 282° |
| 2026-04-30 19:58 | 50.08027 | 19.76085 | 1588 ft | 92 kts | 348° |
| 2026-04-30 19:58 | 50.08615 | 19.76289 | 1575 ft | 99 kts | 68° |
| 2026-04-30 19:58 | 50.08701 | 19.77405 | 1571 ft | 105 kts | 84° |
| 2026-04-30 19:58 | 50.08759 | 19.78527 | 1609 ft | 102 kts | 84° |
| 2026-04-30 19:59 | 50.08809 | 19.79646 | 1546 ft | 107 kts | 84° |
| 2026-04-30 19:59 | 50.08888 | 19.80788 | 1537 ft | 105 kts | 79° |
| 2026-04-30 19:59 | 50.08637 | 19.82537 | 1359 ft | 90 kts | 168° |
| 2026-04-30 20:00 | 50.08236 | 19.82013 | 1189 ft | 87 kts | 262° |
| 2026-04-30 20:00 | 50.08136 | 19.81073 | 1051 ft | 88 kts | 259° |
| 2026-04-30 20:00 | 50.08002 | 19.80140 | 890 ft | 84 kts | 259° |
| 2026-04-30 20:00 | 50.07896 | 19.79343 | 800 ft | 66 kts | 261° |
| 2026-04-30 20:01 | 50.07697 | 19.78001 | 910 ft | 85 kts | 257° |
| 2026-04-30 20:01 | 50.07556 | 19.77042 | 1134 ft | 96 kts | 259° |
| 2026-04-30 20:01 | 50.07425 | 19.76007 | 1365 ft | 100 kts | 259° |
| 2026-04-30 20:02 | 50.07741 | 19.74228 | 1636 ft | 99 kts | 347° |
| 2026-04-30 20:02 | 50.08431 | 19.74015 | 1605 ft | 100 kts | 354° |
| 2026-04-30 20:03 | 50.09001 | 19.75638 | 1659 ft | 97 kts | 79° |
| 2026-04-30 20:03 | 50.09092 | 19.76658 | 1699 ft | 94 kts | 80° |
| 2026-04-30 20:03 | 50.09168 | 19.77681 | 1712 ft | 95 kts | 83° |
| 2026-04-30 20:03 | 50.09196 | 19.78709 | 1710 ft | 96 kts | 86° |
| 2026-04-30 20:04 | 50.09217 | 19.79765 | 1687 ft | 100 kts | 84° |
| 2026-04-30 20:04 | 50.09295 | 19.80877 | 1640 ft | 106 kts | 81° |
| 2026-04-30 20:04 | 50.09409 | 19.81964 | 1641 ft | 97 kts | 79° |
| 2026-04-30 20:05 | 50.08637 | 19.83043 | 1325 ft | 88 kts | 182° |
| 2026-04-30 20:05 | 50.08308 | 19.82387 | 1134 ft | 89 kts | 261° |
| 2026-04-30 20:05 | 50.08075 | 19.80623 | 917 ft | 77 kts | 261° |
| 2026-04-30 20:06 | 50.07962 | 19.79850 | 823 ft | 70 kts | 261° |
| 2026-04-30 20:06 | 50.07831 | 19.78939 | 860 ft | 99 kts | 258° |
| 2026-04-30 20:06 | 50.07730 | 19.78247 | 883 ft | 98 kts | 259° |
| 2026-04-30 20:06 | 50.07545 | 19.76881 | 1113 ft | 96 kts | 257° |
| 2026-04-30 20:07 | 50.07396 | 19.75856 | 1510 ft | 100 kts | 258° |
| 2026-04-30 20:07 | 50.07646 | 19.75009 | 1609 ft | 95 kts | 346° |
| 2026-04-30 20:07 | 50.08484 | 19.75831 | 1612 ft | 96 kts | 74° |
| 2026-04-30 20:08 | 50.08606 | 19.76826 | 1738 ft | 89 kts | 77° |
| 2026-04-30 20:08 | 50.08714 | 19.77791 | 1946 ft | 97 kts | 77° |
| 2026-04-30 20:08 | 50.08933 | 19.78758 | 2015 ft | 95 kts | 37° |
| 2026-04-30 20:08 | 50.09548 | 19.78936 | 2029 ft | 92 kts | 359° |
| 2026-04-30 20:09 | 50.10189 | 19.78879 | 2028 ft | 93 kts | 356° |
| 2026-04-30 20:09 | 50.10809 | 19.78612 | 2010 ft | 92 kts | 338° |
| 2026-04-30 20:09 | 50.10734 | 19.78625 | 1898 ft | 103 kts | 267° |
| 2026-04-30 20:10 | 50.10744 | 19.78378 | 1896 ft | 93 kts | 222° |
| 2026-04-30 20:10 | 50.10926 | 19.77817 | 1933 ft | 77 kts | 25° |
| 2026-04-30 20:10 | 50.11010 | 19.78563 | 1860 ft | 90 kts | 151° |
| 2026-04-30 20:11 | 50.11050 | 19.78177 | 1766 ft | 92 kts | 99° |
| 2026-04-30 20:11 | 50.10692 | 19.78089 | 1730 ft | 91 kts | 278° |
| 2026-04-30 20:11 | 50.11107 | 19.77974 | 1749 ft | 85 kts | 68° |
| 2026-04-30 20:12 | 50.10887 | 19.77976 | 1735 ft | 82 kts | 347° |
| 2026-04-30 20:12 | 50.11068 | 19.78585 | 1701 ft | 92 kts | 140° |
| 2026-04-30 20:12 | 50.10722 | 19.78072 | 1654 ft | 93 kts | 280° |
| 2026-04-30 20:13 | 50.11171 | 19.77852 | 1722 ft | 85 kts | 54° |
| 2026-04-30 20:13 | 50.11106 | 19.78723 | 1845 ft | 88 kts | 136° |
| 2026-04-30 20:13 | 50.10688 | 19.78360 | 1857 ft | 97 kts | 275° |
| 2026-04-30 20:13 | 50.11154 | 19.78067 | 1881 ft | 95 kts | 54° |
| 2026-04-30 20:14 | 50.10936 | 19.78848 | 1975 ft | 90 kts | 188° |
| 2026-04-30 20:14 | 50.10800 | 19.78051 | 1910 ft | 89 kts | 316° |
| 2026-04-30 20:14 | 50.11181 | 19.78350 | 1910 ft | 87 kts | 97° |
| 2026-04-30 20:14 | 50.10782 | 19.78893 | 1872 ft | 91 kts | 211° |
| 2026-04-30 20:15 | 50.10768 | 19.78029 | 1897 ft | 83 kts | 317° |
| 2026-04-30 20:15 | 50.11103 | 19.78417 | 1870 ft | 90 kts | 92° |
| 2026-04-30 20:15 | 50.10847 | 19.79268 | 1890 ft | 91 kts | 170° |
| 2026-04-30 20:15 | 50.10673 | 19.78500 | 1839 ft | 93 kts | 287° |
| 2026-04-30 20:16 | 50.10856 | 19.77560 | 1871 ft | 90 kts | 306° |
| 2026-04-30 20:16 | 50.11324 | 19.77826 | 1821 ft | 96 kts | 73° |
| 2026-04-30 20:16 | 50.11271 | 19.78870 | 1806 ft | 97 kts | 109° |
| 2026-04-30 20:16 | 50.10757 | 19.79077 | 1755 ft | 92 kts | 245° |
| 2026-04-30 20:17 | 50.10750 | 19.78108 | 1701 ft | 91 kts | 277° |
| 2026-04-30 20:17 | 50.11045 | 19.77464 | 1813 ft | 75 kts | 7° |
| 2026-04-30 20:17 | 50.11320 | 19.78108 | 1757 ft | 88 kts | 94° |
| 2026-04-30 20:17 | 50.11114 | 19.79006 | 1753 ft | 90 kts | 156° |
| 2026-04-30 20:18 | 50.10732 | 19.78436 | 1680 ft | 96 kts | 278° |
| 2026-04-30 20:18 | 50.11132 | 19.77965 | 1718 ft | 88 kts | 37° |
| 2026-04-30 20:18 | 50.11221 | 19.78891 | 1720 ft | 92 kts | 117° |
| 2026-04-30 20:18 | 50.10798 | 19.78645 | 1658 ft | 96 kts | 267° |
| 2026-04-30 20:19 | 50.10893 | 19.77653 | 1701 ft | 90 kts | 324° |
| 2026-04-30 20:19 | 50.11292 | 19.78108 | 1691 ft | 94 kts | 93° |
| 2026-04-30 20:19 | 50.11139 | 19.79060 | 1755 ft | 93 kts | 118° |
| 2026-04-30 20:19 | 50.10616 | 19.79086 | 1749 ft | 96 kts | 248° |
| 2026-04-30 20:20 | 50.10649 | 19.78046 | 1781 ft | 96 kts | 283° |
| 2026-04-30 20:20 | 50.11153 | 19.77898 | 1802 ft | 103 kts | 66° |
| 2026-04-30 20:20 | 50.11039 | 19.79016 | 1846 ft | 103 kts | 115° |
| 2026-04-30 20:20 | 50.10517 | 19.78939 | 1834 ft | 103 kts | 265° |
| 2026-04-30 20:21 | 50.10624 | 19.77887 | 1911 ft | 96 kts | 303° |
| 2026-04-30 20:21 | 50.11162 | 19.77993 | 1901 ft | 100 kts | 69° |
| 2026-04-30 20:21 | 50.11065 | 19.79065 | 1932 ft | 102 kts | 124° |
| 2026-04-30 20:21 | 50.10537 | 19.78840 | 1893 ft | 104 kts | 264° |
| 2026-04-30 20:22 | 50.10704 | 19.77795 | 1921 ft | 98 kts | 317° |
| 2026-04-30 20:22 | 50.11299 | 19.77882 | 1926 ft | 96 kts | 45° |
| 2026-04-30 20:22 | 50.11256 | 19.78873 | 1897 ft | 98 kts | 108° |
| 2026-04-30 20:22 | 50.10822 | 19.79397 | 1882 ft | 94 kts | 207° |
| 2026-04-30 20:23 | 50.10752 | 19.78475 | 1808 ft | 97 kts | 290° |
| 2026-04-30 20:23 | 50.11130 | 19.77693 | 1826 ft | 95 kts | 358° |
| 2026-04-30 20:23 | 50.11449 | 19.78449 | 1811 ft | 99 kts | 95° |
| 2026-04-30 20:23 | 50.11141 | 19.79309 | 1780 ft | 101 kts | 175° |
| 2026-04-30 20:24 | 50.10764 | 19.78565 | 1771 ft | 101 kts | 274° |
| 2026-04-30 20:24 | 50.11023 | 19.77671 | 1771 ft | 98 kts | 355° |
| 2026-04-30 20:24 | 50.11687 | 19.77781 | 1719 ft | 97 kts | 36° |
| 2026-04-30 20:24 | 50.11789 | 19.78736 | 1751 ft | 93 kts | 96° |
| 2026-04-30 20:25 | 50.10796 | 19.79276 | 1699 ft | 95 kts | 221° |
| 2026-04-30 20:25 | 50.10750 | 19.78299 | 1658 ft | 97 kts | 282° |
| 2026-04-30 20:26 | 50.11781 | 19.77630 | 1673 ft | 95 kts | 6° |
| 2026-04-30 20:26 | 50.12130 | 19.79116 | 1867 ft | 91 kts | 104° |
| 2026-04-30 20:26 | 50.11763 | 19.79820 | 1925 ft | 94 kts | 172° |
| 2026-04-30 20:27 | 50.11128 | 19.78314 | 1905 ft | 99 kts | 284° |
| 2026-04-30 20:27 | 50.12135 | 19.77950 | 1868 ft | 102 kts | 69° |
| 2026-04-30 20:28 | 50.11785 | 19.79828 | 2027 ft | 93 kts | 156° |
| 2026-04-30 20:28 | 50.10809 | 19.78915 | 1973 ft | 99 kts | 277° |
| 2026-04-30 20:29 | 50.11590 | 19.77690 | 2042 ft | 91 kts | 357° |
| 2026-04-30 20:30 | 50.11315 | 19.79489 | 1983 ft | 103 kts | 187° |
| 2026-04-30 20:30 | 50.11016 | 19.76637 | 1907 ft | 101 kts | 303° |
| 2026-04-30 20:31 | 50.12282 | 19.77241 | 1987 ft | 100 kts | 101° |
| 2026-04-30 20:32 | 50.10937 | 19.78955 | 1975 ft | 103 kts | 225° |
| 2026-04-30 20:32 | 50.11475 | 19.77534 | 1940 ft | 101 kts | 10° |
| 2026-04-30 20:33 | 50.11767 | 19.78390 | 1933 ft | 103 kts | 98° |
| 2026-04-30 20:33 | 50.10868 | 19.78457 | 1809 ft | 111 kts | 277° |
| 2026-04-30 20:33 | 50.11396 | 19.77712 | 1782 ft | 109 kts | 349° |
| 2026-04-30 20:34 | 50.11739 | 19.78978 | 1781 ft | 106 kts | 155° |
| 2026-04-30 20:34 | 50.10953 | 19.77837 | 1692 ft | 104 kts | 317° |
| 2026-04-30 20:35 | 50.11608 | 19.77714 | 1745 ft | 96 kts | 31° |
| 2026-04-30 20:35 | 50.11684 | 19.78682 | 1723 ft | 101 kts | 107° |
| 2026-04-30 20:35 | 50.10842 | 19.78363 | 1699 ft | 99 kts | 278° |
| 2026-04-30 20:36 | 50.10942 | 19.77329 | 1735 ft | 96 kts | 282° |
| 2026-04-30 20:36 | 50.11026 | 19.76298 | 1774 ft | 96 kts | 278° |
| 2026-04-30 20:36 | 50.11928 | 19.75373 | 1821 ft | 96 kts | 42° |
| 2026-04-30 20:37 | 50.12030 | 19.76417 | 1761 ft | 104 kts | 95° |
| 2026-04-30 20:37 | 50.11896 | 19.77503 | 1802 ft | 102 kts | 100° |
| 2026-04-30 20:37 | 50.11679 | 19.78549 | 1810 ft | 101 kts | 123° |
| 2026-04-30 20:37 | 50.11077 | 19.78902 | 1857 ft | 98 kts | 198° |
| 2026-04-30 20:38 | 50.10907 | 19.77970 | 1802 ft | 99 kts | 295° |
| 2026-04-30 20:38 | 50.11487 | 19.77747 | 1819 ft | 95 kts | 30° |
| 2026-04-30 20:38 | 50.11600 | 19.78678 | 1837 ft | 99 kts | 105° |
| 2026-04-30 20:39 | 50.10776 | 19.78483 | 1762 ft | 102 kts | 277° |
| 2026-04-30 20:39 | 50.11070 | 19.77603 | 1838 ft | 92 kts | 342° |
| 2026-04-30 20:39 | 50.11477 | 19.78098 | 1894 ft | 90 kts | 90° |
| 2026-04-30 20:40 | 50.11355 | 19.80188 | 1894 ft | 97 kts | 84° |
| 2026-04-30 20:40 | 50.11398 | 19.81255 | 1844 ft | 102 kts | 84° |
| 2026-04-30 20:40 | 50.11445 | 19.82362 | 1823 ft | 103 kts | 85° |
| 2026-04-30 20:41 | 50.10747 | 19.84001 | 1793 ft | 107 kts | 161° |
| 2026-04-30 20:41 | 50.09999 | 19.84245 | 1728 ft | 110 kts | 171° |
| 2026-04-30 20:41 | 50.09236 | 19.84385 | 1640 ft | 111 kts | 175° |
| 2026-04-30 20:41 | 50.08518 | 19.84157 | 1518 ft | 110 kts | 229° |
| 2026-04-30 20:42 | 50.08362 | 19.83090 | 1404 ft | 98 kts | 267° |
| 2026-04-30 20:42 | 50.08279 | 19.82073 | 1250 ft | 91 kts | 260° |
| 2026-04-30 20:42 | 50.08050 | 19.80425 | 895 ft | 69 kts | 257° |
| 2026-04-30 20:43 | 50.07949 | 19.79724 | 800 ft | 61 kts | 258° |
| 2026-04-30 20:43 | 50.07881 | 19.79168 | 795 ft | 38 kts | 257° |
| 2026-04-30 20:43 | 50.07831 | 19.79069 | 795 ft | 5 kts | 185° |
| 2026-04-30 20:44 | 50.07755 | 19.79085 | 795 ft | 0 kts | 165° |
| 2026-04-30 20:44 | 50.07733 | 19.79093 | 794 ft | 7 kts | 166° |
| 2026-04-30 20:45 | 50.07619 | 19.79199 | 794 ft | 16 kts | 83° |
| 2026-04-30 20:45 | 50.07641 | 19.79355 | 794 ft | 19 kts | 77° |
| 2026-04-30 20:45 | 50.07669 | 19.79560 | 794 ft | 16 kts | 76° |
| 2026-04-30 20:46 | 50.07688 | 19.79872 | 794 ft | 6 kts | 149° |
| 2026-04-30 20:46 | 50.07631 | 19.79893 | 794 ft | 12 kts | 168° |
| 2026-04-30 20:47 | 50.07627 | 19.80094 | 794 ft | 9 kts | 79° |
| 2026-04-30 20:47 | 50.07651 | 19.80136 | 794 ft | 5 kts | 346° |
| 2026-04-30 20:48 | 50.07706 | 19.80116 | 794 ft | 0 kts | 348° |